hwlogo.jpg (8581 bytes)
Home Your Weather Products Services Weather On Your Site Contact
HW Version Logo
Weather Info
Your Weather (Options)
Canadian Weather
International Weather
Enter your " Place, State", US Zip Code or ICAO:  
Forecast Information Radar Information
Pond Inlet, Nunavut, Canada  Lat: 72.68N, Lon: 77.97W
ICAO Used: CYIO
Current Conditions
Updated: 1:00 AM CST MON FEB 19 2018
Sun & Moon Information
Clear
Clear
Temp: -37°C
Humidity: 59%
Wind Speed: S 5 MPH
Barometer: 1014 mb
Dewpoint: -42°C
Heat Index: -37°C
Wind Chill: -46°C
Civil Twilight: 6:39 AM CST Moon Phase:
Waxing Crescent Moon
Sunrise: 8:00 AM CST
Sunset: 2:53 PM CST
Civil Twilight: 4:13 PM CST
Forecast for Pond Inlet, NU:
(Forecast based on TAF for )
0142 AM CST MON FEB 19 2018
  
OVERNIGHT MORNING AFTERNOON
Clear Clear Clear
ZoneCast:
Dated: 0142 AM CST MON FEB 19 2018
Overnight...Clear with winds from the south at 6 mph.

Morning...Clear with winds from the south at 6 mph.

Afternoon...Clear with winds from the south at 6 mph.

Original Encoded TAF:
Dated: 0142 AM CST MON FEB 19 2018
2018/02/19 07:42
TAF CYIO 190638Z 1907/1919 18005KT P6SM SKC 
      RMK FCST BASED ON AUTO OBS. NXT FCST BY 191300Z